Kezdőlap
METAR-TAF:

METAR-TAF

Repülőterek :

Kuopio, Finnország

földrajzi szélesség: 63-01N, földrajzi hosszúság: 027-48E, magasság: 98 m

Jelenlegi meteorológiai megfigyelések

A jelentés 27 perccel ezelõtt készült, 12:50 UTC
Nyugat-északnyugati szél 12 kt
Hőmérséklet 9°C
Páratartalom 49%
Légköri nyomás 1030 hPa
Látótávolság 10 km, vagy több
felhőtlen 1500 m magasságban, és nincs gomolyfelhõ

METAR: EFKU 191250Z AUTO 29012KT CAVOK 09/M01 Q1030

Idő: 16:17 (13:17 UTC)

Előrejelzés

A jelentés 1 órával és 57 perccel ezelõtt készült, 11:20 UTC
Az előrejelzés 19-én 12 óra UTC és 20-én 12 óra UTC között érvényes
Nyugat-északnyugati szél 12 kt
Látótávolság 10 km, vagy több
felhőtlen 1500 m magasságban, és nincs gomolyfelhõ

TAF: EFKU 191120Z 1912/2012 30012KT CAVOK

Meteorológiai megfigyelések és előrejelzések több, mint 4000 repülőtéren (METAR és TAF jelentéseket).

A térképen piros és sárga pontok jelzik az elérhető meteorológiai állomásokat.

Mozgassa az egeret a pont fölött, hogy megjelenjen az állomás neve.

Azután kattintson az időjárási megfigyelések és előrejelzések megtekintéséhez.

A térkép megváltoztatása: kattintson a fekete keresztel jelölt zöld gombra ráközelítéshez, a vonallal jelölt zöld gombra távolításhoz, vagy a zöld nyilakra a szomszédos térképek eléréséhez.


METAR-TAF: